sensor_id;sensor_type;location;lat;lon;timestamp;temperature;humidity
54642;DHT22;40536;53.194;5.728;2022-12-18T00:00:45;-2.80;99.90
54642;DHT22;40536;53.194;5.728;2022-12-18T00:03:13;-2.80;99.90
54642;DHT22;40536;53.194;5.728;2022-12-18T00:05:50;-2.80;99.90
54642;DHT22;40536;53.194;5.728;2022-12-18T00:08:16;-2.80;99.90
54642;DHT22;40536;53.194;5.728;2022-12-18T00:10:42;-2.90;99.90
54642;DHT22;40536;53.194;5.728;2022-12-18T00:13:09;-2.80;99.90
54642;DHT22;40536;53.194;5.728;2022-12-18T00:15:35;-0.80;99.90
54642;DHT22;40536;53.194;5.728;2022-12-18T00:18:01;-2.80;99.90
54642;DHT22;40536;53.194;5.728;2022-12-18T00:20:27;-2.80;99.90
54642;DHT22;40536;53.194;5.728;2022-12-18T00:22:53;-2.80;99.90
54642;DHT22;40536;53.194;5.728;2022-12-18T00:25:19;-2.80;99.90
54642;DHT22;40536;53.194;5.728;2022-12-18T00:27:45;-2.80;99.90
54642;DHT22;40536;53.194;5.728;2022-12-18T00:30:11;-2.80;99.90
54642;DHT22;40536;53.194;5.728;2022-12-18T00:32:37;-0.70;99.90
54642;DHT22;40536;53.194;5.728;2022-12-18T00:35:03;-2.80;99.90
54642;DHT22;40536;53.194;5.728;2022-12-18T00:37:29;-2.80;99.90
54642;DHT22;40536;53.194;5.728;2022-12-18T00:39:55;-2.80;99.90
54642;DHT22;40536;53.194;5.728;2022-12-18T00:42:21;-4.20;99.90
54642;DHT22;40536;53.194;5.728;2022-12-18T00:45:05;-2.60;99.90
54642;DHT22;40536;53.194;5.728;2022-12-18T00:47:31;-2.80;99.90
54642;DHT22;40536;53.194;5.728;2022-12-18T00:49:57;-2.90;99.90
54642;DHT22;40536;53.194;5.728;2022-12-18T00:52:22;-2.90;99.90
54642;DHT22;40536;53.194;5.728;2022-12-18T00:54:48;-2.80;99.90
54642;DHT22;40536;53.194;5.728;2022-12-18T00:57:13;-2.90;99.90
54642;DHT22;40536;53.194;5.728;2022-12-18T00:59:39;-2.90;99.90
54642;DHT22;40536;53.194;5.728;2022-12-18T01:02:05;-2.90;99.90
54642;DHT22;40536;53.194;5.728;2022-12-18T01:04:33;-2.90;99.90
54642;DHT22;40536;53.194;5.728;2022-12-18T01:07:00;-2.90;99.90
54642;DHT22;40536;53.194;5.728;2022-12-18T01:09:25;-2.90;99.90
54642;DHT22;40536;53.194;5.728;2022-12-18T01:11:51;-2.90;99.90
54642;DHT22;40536;53.194;5.728;2022-12-18T01:14:17;-2.90;99.90
54642;DHT22;40536;53.194;5.728;2022-12-18T01:16:43;-2.90;99.90
54642;DHT22;40536;53.194;5.728;2022-12-18T01:19:08;-2.90;99.90
54642;DHT22;40536;53.194;5.728;2022-12-18T01:21:34;-3.00;99.90
54642;DHT22;40536;53.194;5.728;2022-12-18T01:24:00;-3.00;99.90
54642;DHT22;40536;53.194;5.728;2022-12-18T01:26:26;-3.00;99.90
54642;DHT22;40536;53.194;5.728;2022-12-18T01:28:55;-3.00;99.90
54642;DHT22;40536;53.194;5.728;2022-12-18T01:31:24;-3.00;99.90
54642;DHT22;40536;53.194;5.728;2022-12-18T01:33:51;-2.90;99.90
54642;DHT22;40536;53.194;5.728;2022-12-18T01:36:23;-3.00;99.90
54642;DHT22;40536;53.194;5.728;2022-12-18T01:38:50;-3.00;99.90
54642;DHT22;40536;53.194;5.728;2022-12-18T01:41:17;-0.10;99.90
54642;DHT22;40536;53.194;5.728;2022-12-18T01:46:15;-3.00;99.90
54642;DHT22;40536;53.194;5.728;2022-12-18T01:48:42;-3.00;99.90
54642;DHT22;40536;53.194;5.728;2022-12-18T01:51:09;-3.10;99.90
54642;DHT22;40536;53.194;5.728;2022-12-18T01:53:37;-3.00;99.90
54642;DHT22;40536;53.194;5.728;2022-12-18T01:56:03;-3.60;99.90
54642;DHT22;40536;53.194;5.728;2022-12-18T02:01:16;-3.10;99.90
54642;DHT22;40536;53.194;5.728;2022-12-18T02:03:42;-3.20;99.90
54642;DHT22;40536;53.194;5.728;2022-12-18T02:06:27;-3.20;99.90
54642;DHT22;40536;53.194;5.728;2022-12-18T02:09:15;-1.40;99.90
54642;DHT22;40536;53.194;5.728;2022-12-18T02:14:24;-3.40;99.90
54642;DHT22;40536;53.194;5.728;2022-12-18T02:17:21;-3.10;99.90
54642;DHT22;40536;53.194;5.728;2022-12-18T02:22:57;-1.50;99.90
54642;DHT22;40536;53.194;5.728;2022-12-18T02:25:30;-3.50;99.90
54642;DHT22;40536;53.194;5.728;2022-12-18T02:28:00;-3.50;99.90
54642;DHT22;40536;53.194;5.728;2022-12-18T02:30:30;-3.00;99.90
54642;DHT22;40536;53.194;5.728;2022-12-18T02:32:58;-3.60;99.90
54642;DHT22;40536;53.194;5.728;2022-12-18T02:35:27;-3.60;99.90
54642;DHT22;40536;53.194;5.728;2022-12-18T02:37:54;-3.60;99.90
54642;DHT22;40536;53.194;5.728;2022-12-18T02:40:22;-3.60;99.90
54642;DHT22;40536;53.194;5.728;2022-12-18T02:42:48;-3.70;99.90
54642;DHT22;40536;53.194;5.728;2022-12-18T02:45:14;-4.40;99.90
54642;DHT22;40536;53.194;5.728;2022-12-18T02:47:43;-3.80;99.90
54642;DHT22;40536;53.194;5.728;2022-12-18T02:50:44;-3.70;99.90
54642;DHT22;40536;53.194;5.728;2022-12-18T02:53:21;-3.90;99.90
54642;DHT22;40536;53.194;5.728;2022-12-18T02:55:56;-3.90;99.90
54642;DHT22;40536;53.194;5.728;2022-12-18T02:58:47;-4.00;99.90
54642;DHT22;40536;53.194;5.728;2022-12-18T03:01:34;-4.00;99.90
54642;DHT22;40536;53.194;5.728;2022-12-18T03:07:41;-4.20;99.90
54642;DHT22;40536;53.194;5.728;2022-12-18T03:10:11;-4.20;99.90
54642;DHT22;40536;53.194;5.728;2022-12-18T03:12:42;-5.10;99.90
54642;DHT22;40536;53.194;5.728;2022-12-18T03:15:28;-4.30;99.90
54642;DHT22;40536;53.194;5.728;2022-12-18T03:17:59;-4.30;99.90
54642;DHT22;40536;53.194;5.728;2022-12-18T03:20:29;-4.50;99.90
54642;DHT22;40536;53.194;5.728;2022-12-18T03:23:04;-4.30;99.90
54642;DHT22;40536;53.194;5.728;2022-12-18T03:25:33;-4.20;99.90
54642;DHT22;40536;53.194;5.728;2022-12-18T03:28:02;-5.10;99.90
54642;DHT22;40536;53.194;5.728;2022-12-18T03:30:32;-3.20;99.90
54642;DHT22;40536;53.194;5.728;2022-12-18T03:33:05;-4.80;99.90
54642;DHT22;40536;53.194;5.728;2022-12-18T03:35:36;-4.20;99.90
54642;DHT22;40536;53.194;5.728;2022-12-18T03:38:02;-4.30;99.90
54642;DHT22;40536;53.194;5.728;2022-12-18T03:40:43;-1.40;99.90
54642;DHT22;40536;53.194;5.728;2022-12-18T03:43:34;-4.40;99.90
54642;DHT22;40536;53.194;5.728;2022-12-18T03:46:11;-4.50;99.90
54642;DHT22;40536;53.194;5.728;2022-12-18T03:48:43;-4.50;99.90
54642;DHT22;40536;53.194;5.728;2022-12-18T03:51:50;-4.60;99.90
54642;DHT22;40536;53.194;5.728;2022-12-18T03:54:18;-4.60;99.90
54642;DHT22;40536;53.194;5.728;2022-12-18T03:56:51;-4.70;99.90
54642;DHT22;40536;53.194;5.728;2022-12-18T03:59:21;-5.40;99.90
54642;DHT22;40536;53.194;5.728;2022-12-18T04:01:49;-6.00;99.90
54642;DHT22;40536;53.194;5.728;2022-12-18T04:04:18;-3.40;99.90
54642;DHT22;40536;53.194;5.728;2022-12-18T04:06:45;-2.70;99.90
54642;DHT22;40536;53.194;5.728;2022-12-18T04:09:13;-4.80;99.90
54642;DHT22;40536;53.194;5.728;2022-12-18T04:11:41;-4.70;99.90
54642;DHT22;40536;53.194;5.728;2022-12-18T04:14:09;-4.70;99.90
54642;DHT22;40536;53.194;5.728;2022-12-18T04:16:35;-4.70;99.90
54642;DHT22;40536;53.194;5.728;2022-12-18T04:19:00;-4.90;99.90
54642;DHT22;40536;53.194;5.728;2022-12-18T04:21:26;-4.80;99.90
54642;DHT22;40536;53.194;5.728;2022-12-18T04:23:52;-4.90;99.90
54642;DHT22;40536;53.194;5.728;2022-12-18T04:26:18;-4.90;99.90
54642;DHT22;40536;53.194;5.728;2022-12-18T04:28:43;-4.90;99.90
54642;DHT22;40536;53.194;5.728;2022-12-18T04:31:09;-5.00;99.90
54642;DHT22;40536;53.194;5.728;2022-12-18T04:33:34;-5.00;99.90
54642;DHT22;40536;53.194;5.728;2022-12-18T04:36:00;-6.10;99.90
54642;DHT22;40536;53.194;5.728;2022-12-18T04:38:26;-5.30;99.90
54642;DHT22;40536;53.194;5.728;2022-12-18T04:40:51;-5.10;99.90
54642;DHT22;40536;53.194;5.728;2022-12-18T04:43:17;-7.00;99.90
54642;DHT22;40536;53.194;5.728;2022-12-18T04:45:43;-5.10;99.90
54642;DHT22;40536;53.194;5.728;2022-12-18T04:48:08;-5.10;99.90
54642;DHT22;40536;53.194;5.728;2022-12-18T04:50:34;-5.40;99.90
54642;DHT22;40536;53.194;5.728;2022-12-18T04:52:59;-3.50;99.90
54642;DHT22;40536;53.194;5.728;2022-12-18T04:55:26;-5.30;99.90
54642;DHT22;40536;53.194;5.728;2022-12-18T04:57:52;-5.60;99.90
54642;DHT22;40536;53.194;5.728;2022-12-18T05:00:17;-3.40;99.90
54642;DHT22;40536;53.194;5.728;2022-12-18T05:02:43;-3.80;99.90
54642;DHT22;40536;53.194;5.728;2022-12-18T05:05:09;-6.00;99.90
54642;DHT22;40536;53.194;5.728;2022-12-18T05:07:35;-5.40;99.90
54642;DHT22;40536;53.194;5.728;2022-12-18T05:10:00;-3.80;99.90
54642;DHT22;40536;53.194;5.728;2022-12-18T05:12:26;-5.40;99.90
54642;DHT22;40536;53.194;5.728;2022-12-18T05:14:52;-5.40;99.90
54642;DHT22;40536;53.194;5.728;2022-12-18T05:17:17;-5.40;99.90
54642;DHT22;40536;53.194;5.728;2022-12-18T05:19:43;-5.40;99.90
54642;DHT22;40536;53.194;5.728;2022-12-18T05:22:09;-5.40;99.90
54642;DHT22;40536;53.194;5.728;2022-12-18T05:24:35;-5.30;99.90
54642;DHT22;40536;53.194;5.728;2022-12-18T05:27:01;-7.80;99.90
54642;DHT22;40536;53.194;5.728;2022-12-18T05:29:26;-5.40;99.90
54642;DHT22;40536;53.194;5.728;2022-12-18T05:31:52;-5.20;99.90
54642;DHT22;40536;53.194;5.728;2022-12-18T05:34:18;-5.40;99.90
54642;DHT22;40536;53.194;5.728;2022-12-18T05:36:43;-5.40;99.90
54642;DHT22;40536;53.194;5.728;2022-12-18T05:39:09;-5.40;99.90
54642;DHT22;40536;53.194;5.728;2022-12-18T05:41:35;-5.40;99.90
54642;DHT22;40536;53.194;5.728;2022-12-18T05:44:00;-5.50;99.90
54642;DHT22;40536;53.194;5.728;2022-12-18T05:46:26;-5.40;99.90
54642;DHT22;40536;53.194;5.728;2022-12-18T05:48:52;-5.30;99.90
54642;DHT22;40536;53.194;5.728;2022-12-18T05:51:20;-5.40;99.90
54642;DHT22;40536;53.194;5.728;2022-12-18T05:53:47;-5.50;99.90
54642;DHT22;40536;53.194;5.728;2022-12-18T05:56:19;-5.40;99.90
54642;DHT22;40536;53.194;5.728;2022-12-18T05:58:45;-5.40;99.90
54642;DHT22;40536;53.194;5.728;2022-12-18T06:01:17;-4.90;99.90
54642;DHT22;40536;53.194;5.728;2022-12-18T06:03:43;-5.50;99.90
54642;DHT22;40536;53.194;5.728;2022-12-18T06:06:14;-5.60;99.90
54642;DHT22;40536;53.194;5.728;2022-12-18T06:08:40;-5.60;99.90
54642;DHT22;40536;53.194;5.728;2022-12-18T06:11:05;-3.70;99.90
54642;DHT22;40536;53.194;5.728;2022-12-18T06:13:31;-5.70;99.90
54642;DHT22;40536;53.194;5.728;2022-12-18T06:15:57;-5.70;99.90
54642;DHT22;40536;53.194;5.728;2022-12-18T06:18:22;-5.80;99.90
54642;DHT22;40536;53.194;5.728;2022-12-18T06:20:58;-6.90;99.90
54642;DHT22;40536;53.194;5.728;2022-12-18T06:23:24;-5.80;99.90
54642;DHT22;40536;53.194;5.728;2022-12-18T06:25:50;-5.80;99.90
54642;DHT22;40536;53.194;5.728;2022-12-18T06:28:16;-7.00;99.90
54642;DHT22;40536;53.194;5.728;2022-12-18T06:30:46;-5.90;99.90
54642;DHT22;40536;53.194;5.728;2022-12-18T06:33:13;-5.90;99.90
54642;DHT22;40536;53.194;5.728;2022-12-18T06:35:40;-7.20;99.90
54642;DHT22;40536;53.194;5.728;2022-12-18T06:38:05;-5.90;99.90
54642;DHT22;40536;53.194;5.728;2022-12-18T06:40:31;-4.50;99.90
54642;DHT22;40536;53.194;5.728;2022-12-18T06:42:57;-6.00;99.90
54642;DHT22;40536;53.194;5.728;2022-12-18T06:45:22;-6.80;99.90
54642;DHT22;40536;53.194;5.728;2022-12-18T06:47:48;-6.60;99.90
54642;DHT22;40536;53.194;5.728;2022-12-18T06:50:14;-6.00;99.90
54642;DHT22;40536;53.194;5.728;2022-12-18T06:52:40;-6.00;99.90
54642;DHT22;40536;53.194;5.728;2022-12-18T06:55:09;-7.30;99.90
54642;DHT22;40536;53.194;5.728;2022-12-18T06:57:35;-6.10;99.90
54642;DHT22;40536;53.194;5.728;2022-12-18T07:00:00;-5.80;99.90
54642;DHT22;40536;53.194;5.728;2022-12-18T07:02:26;-6.10;99.90
54642;DHT22;40536;53.194;5.728;2022-12-18T07:04:52;-4.10;99.90
54642;DHT22;40536;53.194;5.728;2022-12-18T07:07:17;-6.10;99.90
54642;DHT22;40536;53.194;5.728;2022-12-18T07:09:43;-6.00;99.90
54642;DHT22;40536;53.194;5.728;2022-12-18T07:12:09;-6.00;99.90
54642;DHT22;40536;53.194;5.728;2022-12-18T07:14:34;-5.90;99.90
54642;DHT22;40536;53.194;5.728;2022-12-18T07:17:00;-6.20;99.90
54642;DHT22;40536;53.194;5.728;2022-12-18T07:19:26;-7.70;99.90
54642;DHT22;40536;53.194;5.728;2022-12-18T07:21:51;-6.90;99.90
54642;DHT22;40536;53.194;5.728;2022-12-18T07:24:17;-7.20;99.90
54642;DHT22;40536;53.194;5.728;2022-12-18T07:26:45;-4.10;99.90
54642;DHT22;40536;53.194;5.728;2022-12-18T07:29:11;-6.20;99.90
54642;DHT22;40536;53.194;5.728;2022-12-18T07:31:37;-6.20;99.90
54642;DHT22;40536;53.194;5.728;2022-12-18T07:34:02;-6.50;99.90
54642;DHT22;40536;53.194;5.728;2022-12-18T07:38:57;-5.40;99.90
54642;DHT22;40536;53.194;5.728;2022-12-18T07:41:23;-6.00;99.90
54642;DHT22;40536;53.194;5.728;2022-12-18T07:43:48;-6.10;99.90
54642;DHT22;40536;53.194;5.728;2022-12-18T07:46:15;-6.30;99.90
54642;DHT22;40536;53.194;5.728;2022-12-18T07:48:41;-7.50;99.90
54642;DHT22;40536;53.194;5.728;2022-12-18T07:51:07;-6.30;99.90
54642;DHT22;40536;53.194;5.728;2022-12-18T07:53:35;-6.20;99.90
54642;DHT22;40536;53.194;5.728;2022-12-18T07:56:04;-6.10;99.90
54642;DHT22;40536;53.194;5.728;2022-12-18T08:01:23;-6.00;99.90
54642;DHT22;40536;53.194;5.728;2022-12-18T08:03:49;-3.50;99.90
54642;DHT22;40536;53.194;5.728;2022-12-18T08:06:14;-2.40;99.90
54642;DHT22;40536;53.194;5.728;2022-12-18T08:08:40;-6.00;99.90
54642;DHT22;40536;53.194;5.728;2022-12-18T08:11:07;-6.90;99.90
54642;DHT22;40536;53.194;5.728;2022-12-18T08:13:33;-5.80;99.90
54642;DHT22;40536;53.194;5.728;2022-12-18T08:16:01;-5.80;99.90
54642;DHT22;40536;53.194;5.728;2022-12-18T08:18:27;-5.70;99.90
54642;DHT22;40536;53.194;5.728;2022-12-18T08:20:53;-5.40;99.90
54642;DHT22;40536;53.194;5.728;2022-12-18T08:23:19;-5.60;99.90
54642;DHT22;40536;53.194;5.728;2022-12-18T08:28:11;-5.30;99.90
54642;DHT22;40536;53.194;5.728;2022-12-18T08:30:36;-5.50;99.90
54642;DHT22;40536;53.194;5.728;2022-12-18T08:33:03;-4.70;99.90
54642;DHT22;40536;53.194;5.728;2022-12-18T08:35:29;-5.80;99.90
54642;DHT22;40536;53.194;5.728;2022-12-18T08:40:20;-5.40;99.90
54642;DHT22;40536;53.194;5.728;2022-12-18T08:42:46;-7.40;99.90
54642;DHT22;40536;53.194;5.728;2022-12-18T08:45:34;-5.30;99.90
54642;DHT22;40536;53.194;5.728;2022-12-18T08:47:59;-5.20;99.90
54642;DHT22;40536;53.194;5.728;2022-12-18T08:50:25;-5.30;99.90
54642;DHT22;40536;53.194;5.728;2022-12-18T08:55:17;-5.10;99.90
54642;DHT22;40536;53.194;5.728;2022-12-18T08:57:42;-5.10;99.90
54642;DHT22;40536;53.194;5.728;2022-12-18T09:00:08;-5.00;99.90
54642;DHT22;40536;53.194;5.728;2022-12-18T09:02:34;-5.00;99.90
54642;DHT22;40536;53.194;5.728;2022-12-18T09:05:00;-4.60;99.90
54642;DHT22;40536;53.194;5.728;2022-12-18T09:07:26;-4.80;99.90
54642;DHT22;40536;53.194;5.728;2022-12-18T09:09:51;-5.00;99.90
54642;DHT22;40536;53.194;5.728;2022-12-18T09:12:17;-4.80;99.90
54642;DHT22;40536;53.194;5.728;2022-12-18T09:14:43;-4.70;99.90
54642;DHT22;40536;53.194;5.728;2022-12-18T09:17:08;-4.60;99.90
54642;DHT22;40536;53.194;5.728;2022-12-18T09:19:34;-4.60;99.90
54642;DHT22;40536;53.194;5.728;2022-12-18T09:22:00;-4.40;99.90
54642;DHT22;40536;53.194;5.728;2022-12-18T09:24:25;-4.30;99.90
54642;DHT22;40536;53.194;5.728;2022-12-18T09:26:54;-4.30;99.90
54642;DHT22;40536;53.194;5.728;2022-12-18T09:29:22;-4.20;99.90
54642;DHT22;40536;53.194;5.728;2022-12-18T09:31:48;-4.10;99.90
54642;DHT22;40536;53.194;5.728;2022-12-18T09:34:15;-4.00;99.90
54642;DHT22;40536;53.194;5.728;2022-12-18T09:36:41;-3.90;99.90
54642;DHT22;40536;53.194;5.728;2022-12-18T09:39:06;-3.90;99.90
54642;DHT22;40536;53.194;5.728;2022-12-18T09:41:52;-3.90;99.90
54642;DHT22;40536;53.194;5.728;2022-12-18T09:46:58;-3.90;99.90
54642;DHT22;40536;53.194;5.728;2022-12-18T09:49:29;-3.80;99.90
54642;DHT22;40536;53.194;5.728;2022-12-18T09:52:30;-3.70;99.90
54642;DHT22;40536;53.194;5.728;2022-12-18T09:57:53;-3.60;99.90
54642;DHT22;40536;53.194;5.728;2022-12-18T10:00:22;-3.50;99.90
54642;DHT22;40536;53.194;5.728;2022-12-18T10:02:49;-3.30;99.90
54642;DHT22;40536;53.194;5.728;2022-12-18T10:05:20;-3.30;99.90
54642;DHT22;40536;53.194;5.728;2022-12-18T10:08:13;-3.40;99.90
54642;DHT22;40536;53.194;5.728;2022-12-18T10:10:51;-3.10;99.90
54642;DHT22;40536;53.194;5.728;2022-12-18T10:14:15;-3.10;99.90
54642;DHT22;40536;53.194;5.728;2022-12-18T10:16:29;-3.00;99.90
54642;DHT22;40536;53.194;5.728;2022-12-18T10:22:00;-2.90;99.90
54642;DHT22;40536;53.194;5.728;2022-12-18T10:24:33;-2.80;99.90
54642;DHT22;40536;53.194;5.728;2022-12-18T10:27:18;-2.70;99.90
54642;DHT22;40536;53.194;5.728;2022-12-18T10:29:46;-2.70;99.90
54642;DHT22;40536;53.194;5.728;2022-12-18T10:32:18;-2.60;99.90
54642;DHT22;40536;53.194;5.728;2022-12-18T10:34:53;-2.60;99.90
54642;DHT22;40536;53.194;5.728;2022-12-18T10:37:22;-2.50;99.90
54642;DHT22;40536;53.194;5.728;2022-12-18T10:40:13;-2.40;99.90
54642;DHT22;40536;53.194;5.728;2022-12-18T10:42:39;-2.30;99.90
54642;DHT22;40536;53.194;5.728;2022-12-18T10:45:16;-2.30;99.90
54642;DHT22;40536;53.194;5.728;2022-12-18T10:47:47;-2.30;99.90
54642;DHT22;40536;53.194;5.728;2022-12-18T10:52:58;-2.20;99.90
54642;DHT22;40536;53.194;5.728;2022-12-18T10:55:30;-2.20;99.90
54642;DHT22;40536;53.194;5.728;2022-12-18T10:58:16;-2.10;99.90
54642;DHT22;40536;53.194;5.728;2022-12-18T11:00:42;-2.10;99.90
54642;DHT22;40536;53.194;5.728;2022-12-18T11:08:31;-1.90;99.90
54642;DHT22;40536;53.194;5.728;2022-12-18T11:10:57;-1.90;99.90
54642;DHT22;40536;53.194;5.728;2022-12-18T11:13:25;-1.80;99.90
54642;DHT22;40536;53.194;5.728;2022-12-18T11:15:52;-0.90;99.90
54642;DHT22;40536;53.194;5.728;2022-12-18T11:21:04;-1.70;99.90
54642;DHT22;40536;53.194;5.728;2022-12-18T11:23:31;-1.70;99.90
54642;DHT22;40536;53.194;5.728;2022-12-18T11:25:59;-1.70;99.90
54642;DHT22;40536;53.194;5.728;2022-12-18T11:31:21;-1.70;99.90
54642;DHT22;40536;53.194;5.728;2022-12-18T11:36:29;-1.60;99.90
54642;DHT22;40536;53.194;5.728;2022-12-18T11:39:00;-1.60;99.90
54642;DHT22;40536;53.194;5.728;2022-12-18T11:41:35;-1.60;99.90
54642;DHT22;40536;53.194;5.728;2022-12-18T11:44:28;-1.50;99.90
54642;DHT22;40536;53.194;5.728;2022-12-18T11:47:07;-1.50;99.90
54642;DHT22;40536;53.194;5.728;2022-12-18T11:49:35;-1.50;99.90
54642;DHT22;40536;53.194;5.728;2022-12-18T11:52:15;-1.50;99.90
54642;DHT22;40536;53.194;5.728;2022-12-18T11:54:42;-1.50;99.90
54642;DHT22;40536;53.194;5.728;2022-12-18T11:57:14;-1.40;99.90
54642;DHT22;40536;53.194;5.728;2022-12-18T12:05:28;-1.50;99.90
54642;DHT22;40536;53.194;5.728;2022-12-18T12:11:20;-1.40;99.90
54642;DHT22;40536;53.194;5.728;2022-12-18T12:17:04;-1.40;99.90
54642;DHT22;40536;53.194;5.728;2022-12-18T12:19:57;-1.40;99.90
54642;DHT22;40536;53.194;5.728;2022-12-18T12:30:53;-1.30;99.90
54642;DHT22;40536;53.194;5.728;2022-12-18T12:33:50;-1.30;99.90
54642;DHT22;40536;53.194;5.728;2022-12-18T12:39:23;-1.20;99.90
54642;DHT22;40536;53.194;5.728;2022-12-18T12:41:52;-1.20;99.90
54642;DHT22;40536;53.194;5.728;2022-12-18T12:44:45;-1.20;99.90
54642;DHT22;40536;53.194;5.728;2022-12-18T12:47:29;-1.20;99.90
54642;DHT22;40536;53.194;5.728;2022-12-18T12:49:58;-1.20;99.90
54642;DHT22;40536;53.194;5.728;2022-12-18T12:52:35;-1.30;99.90
54642;DHT22;40536;53.194;5.728;2022-12-18T12:55:05;-1.20;99.90
54642;DHT22;40536;53.194;5.728;2022-12-18T12:57:38;-1.20;99.90
54642;DHT22;40536;53.194;5.728;2022-12-18T13:00:13;-1.20;99.90
54642;DHT22;40536;53.194;5.728;2022-12-18T13:10:28;-1.10;99.90
54642;DHT22;40536;53.194;5.728;2022-12-18T13:15:46;-1.10;99.90
54642;DHT22;40536;53.194;5.728;2022-12-18T13:18:18;-1.10;99.90
54642;DHT22;40536;53.194;5.728;2022-12-18T13:21:12;-1.10;99.90
54642;DHT22;40536;53.194;5.728;2022-12-18T13:23:36;-1.10;99.90
54642;DHT22;40536;53.194;5.728;2022-12-18T13:34:14;-1.10;99.90
54642;DHT22;40536;53.194;5.728;2022-12-18T13:36:41;-1.00;99.90
54642;DHT22;40536;53.194;5.728;2022-12-18T13:41:53;-1.10;99.90
54642;DHT22;40536;53.194;5.728;2022-12-18T13:46:58;-1.10;99.90
54642;DHT22;40536;53.194;5.728;2022-12-18T13:49:41;-1.10;99.90
54642;DHT22;40536;53.194;5.728;2022-12-18T13:52:21;-1.10;99.90
54642;DHT22;40536;53.194;5.728;2022-12-18T13:54:51;-1.10;99.90
54642;DHT22;40536;53.194;5.728;2022-12-18T13:57:35;-1.10;99.90
54642;DHT22;40536;53.194;5.728;2022-12-18T14:02:47;-1.10;99.90
54642;DHT22;40536;53.194;5.728;2022-12-18T14:05:34;-1.20;99.90
54642;DHT22;40536;53.194;5.728;2022-12-18T14:08:08;-1.20;99.90
54642;DHT22;40536;53.194;5.728;2022-12-18T14:10:35;-1.20;99.90
54642;DHT22;40536;53.194;5.728;2022-12-18T14:13:06;-1.20;99.90
54642;DHT22;40536;53.194;5.728;2022-12-18T14:15:40;-1.20;99.90
54642;DHT22;40536;53.194;5.728;2022-12-18T14:18:20;-1.20;99.90
54642;DHT22;40536;53.194;5.728;2022-12-18T14:20:48;-1.20;99.90
54642;DHT22;40536;53.194;5.728;2022-12-18T14:23:39;0.10;99.90
54642;DHT22;40536;53.194;5.728;2022-12-18T14:26:24;-1.30;99.90
54642;DHT22;40536;53.194;5.728;2022-12-18T14:28:52;-1.20;99.90
54642;DHT22;40536;53.194;5.728;2022-12-18T14:31:24;-1.30;99.90
54642;DHT22;40536;53.194;5.728;2022-12-18T14:33:51;-1.30;99.90
54642;DHT22;40536;53.194;5.728;2022-12-18T14:36:20;-1.30;99.90
54642;DHT22;40536;53.194;5.728;2022-12-18T14:38:54;-1.30;99.90
54642;DHT22;40536;53.194;5.728;2022-12-18T14:41:21;-1.30;99.90
54642;DHT22;40536;53.194;5.728;2022-12-18T14:43:49;-1.40;99.90
54642;DHT22;40536;53.194;5.728;2022-12-18T14:46:41;-1.40;99.90
54642;DHT22;40536;53.194;5.728;2022-12-18T14:51:51;-1.40;99.90
54642;DHT22;40536;53.194;5.728;2022-12-18T14:54:19;-1.40;99.90
54642;DHT22;40536;53.194;5.728;2022-12-18T14:56:47;-1.40;99.90
54642;DHT22;40536;53.194;5.728;2022-12-18T14:59:16;-1.40;99.90
54642;DHT22;40536;53.194;5.728;2022-12-18T15:01:59;-1.40;99.90
54642;DHT22;40536;53.194;5.728;2022-12-18T15:04:31;-1.50;99.90
54642;DHT22;40536;53.194;5.728;2022-12-18T15:07:07;-1.40;99.90
54642;DHT22;40536;53.194;5.728;2022-12-18T15:09:34;0.10;99.90
54642;DHT22;40536;53.194;5.728;2022-12-18T15:12:01;-1.50;99.90
54642;DHT22;40536;53.194;5.728;2022-12-18T15:16:58;-1.50;99.90
54642;DHT22;40536;53.194;5.728;2022-12-18T15:19:37;-1.50;99.90
54642;DHT22;40536;53.194;5.728;2022-12-18T15:22:04;-1.50;99.90
54642;DHT22;40536;53.194;5.728;2022-12-18T15:24:31;-1.50;99.90
54642;DHT22;40536;53.194;5.728;2022-12-18T15:26:58;-1.50;99.90
54642;DHT22;40536;53.194;5.728;2022-12-18T15:29:24;-1.50;99.90
54642;DHT22;40536;53.194;5.728;2022-12-18T15:32:05;-1.50;99.90
54642;DHT22;40536;53.194;5.728;2022-12-18T15:34:39;-1.50;99.90
54642;DHT22;40536;53.194;5.728;2022-12-18T15:37:07;-1.50;99.90
54642;DHT22;40536;53.194;5.728;2022-12-18T15:39:33;-1.50;99.90
54642;DHT22;40536;53.194;5.728;2022-12-18T15:42:03;-1.50;99.90
54642;DHT22;40536;53.194;5.728;2022-12-18T15:44:48;-1.50;99.90
54642;DHT22;40536;53.194;5.728;2022-12-18T15:47:13;-1.50;99.90
54642;DHT22;40536;53.194;5.728;2022-12-18T15:49:39;-1.60;99.90
54642;DHT22;40536;53.194;5.728;2022-12-18T15:52:05;-1.60;99.90
54642;DHT22;40536;53.194;5.728;2022-12-18T15:54:31;-1.50;99.90
54642;DHT22;40536;53.194;5.728;2022-12-18T15:57:15;-1.60;99.90
54642;DHT22;40536;53.194;5.728;2022-12-18T15:59:56;-0.10;99.90
54642;DHT22;40536;53.194;5.728;2022-12-18T16:02:24;-0.50;99.90
54642;DHT22;40536;53.194;5.728;2022-12-18T16:04:52;-1.50;99.90
54642;DHT22;40536;53.194;5.728;2022-12-18T16:07:19;-1.50;99.90
54642;DHT22;40536;53.194;5.728;2022-12-18T16:09:45;-1.30;99.90
54642;DHT22;40536;53.194;5.728;2022-12-18T16:12:20;-1.30;99.90
54642;DHT22;40536;53.194;5.728;2022-12-18T16:14:47;-1.70;99.90
54642;DHT22;40536;53.194;5.728;2022-12-18T16:17:14;-1.40;99.90
54642;DHT22;40536;53.194;5.728;2022-12-18T16:19:40;-1.30;99.90
54642;DHT22;40536;53.194;5.728;2022-12-18T16:22:08;-0.30;99.90
54642;DHT22;40536;53.194;5.728;2022-12-18T16:24:38;-0.70;99.90
54642;DHT22;40536;53.194;5.728;2022-12-18T16:27:04;-1.40;99.90
54642;DHT22;40536;53.194;5.728;2022-12-18T16:29:30;-0.90;99.90
54642;DHT22;40536;53.194;5.728;2022-12-18T16:31:59;-1.20;99.90
54642;DHT22;40536;53.194;5.728;2022-12-18T16:34:28;-1.40;99.90
54642;DHT22;40536;53.194;5.728;2022-12-18T16:36:56;-0.50;99.90
54642;DHT22;40536;53.194;5.728;2022-12-18T16:39:22;-1.40;99.90
54642;DHT22;40536;53.194;5.728;2022-12-18T16:41:48;-1.20;99.90
54642;DHT22;40536;53.194;5.728;2022-12-18T16:44:14;-1.40;99.90
54642;DHT22;40536;53.194;5.728;2022-12-18T16:46:40;-1.40;99.90
54642;DHT22;40536;53.194;5.728;2022-12-18T16:49:15;-1.30;99.90
54642;DHT22;40536;53.194;5.728;2022-12-18T16:51:41;-1.20;99.90
54642;DHT22;40536;53.194;5.728;2022-12-18T16:54:08;-0.50;99.90
54642;DHT22;40536;53.194;5.728;2022-12-18T16:56:33;-1.30;99.90
54642;DHT22;40536;53.194;5.728;2022-12-18T16:59:01;-1.10;99.90
54642;DHT22;40536;53.194;5.728;2022-12-18T17:01:28;-1.10;99.90
54642;DHT22;40536;53.194;5.728;2022-12-18T17:04:02;-1.10;99.90
54642;DHT22;40536;53.194;5.728;2022-12-18T17:06:31;-1.20;99.90
54642;DHT22;40536;53.194;5.728;2022-12-18T17:08:59;0.50;99.90
54642;DHT22;40536;53.194;5.728;2022-12-18T17:11:26;-0.10;99.90
54642;DHT22;40536;53.194;5.728;2022-12-18T17:13:52;-1.20;99.90
54642;DHT22;40536;53.194;5.728;2022-12-18T17:16:19;-1.20;99.90
54642;DHT22;40536;53.194;5.728;2022-12-18T17:18:45;-1.00;99.90
54642;DHT22;40536;53.194;5.728;2022-12-18T17:21:11;-1.00;99.90
54642;DHT22;40536;53.194;5.728;2022-12-18T17:23:39;0.90;99.90
54642;DHT22;40536;53.194;5.728;2022-12-18T17:26:06;-1.10;99.90
54642;DHT22;40536;53.194;5.728;2022-12-18T17:28:33;-1.10;99.90
54642;DHT22;40536;53.194;5.728;2022-12-18T17:30:59;-0.70;99.90
54642;DHT22;40536;53.194;5.728;2022-12-18T17:33:25;-1.00;99.90